sensor_id;sensor_type;location;lat;lon;timestamp;P1;durP1;ratioP1;P2;durP2;ratioP2
2956;SDS011;1488;51.548;7.222;2024-01-25T00:00:17;4.40;;;3.23;;
2956;SDS011;1488;51.548;7.222;2024-01-25T00:02:44;5.10;;;3.33;;
2956;SDS011;1488;51.548;7.222;2024-01-25T00:05:11;6.23;;;3.60;;
2956;SDS011;1488;51.548;7.222;2024-01-25T00:07:46;4.90;;;2.80;;
2956;SDS011;1488;51.548;7.222;2024-01-25T00:10:13;4.50;;;2.80;;
2956;SDS011;1488;51.548;7.222;2024-01-25T00:12:41;5.10;;;2.90;;
2956;SDS011;1488;51.548;7.222;2024-01-25T00:15:08;5.23;;;2.93;;
2956;SDS011;1488;51.548;7.222;2024-01-25T00:17:35;4.80;;;3.00;;
2956;SDS011;1488;51.548;7.222;2024-01-25T00:20:02;4.50;;;2.37;;
2956;SDS011;1488;51.548;7.222;2024-01-25T00:22:30;3.50;;;2.40;;
2956;SDS011;1488;51.548;7.222;2024-01-25T00:24:58;5.00;;;3.00;;
2956;SDS011;1488;51.548;7.222;2024-01-25T00:27:25;3.83;;;2.80;;
2956;SDS011;1488;51.548;7.222;2024-01-25T00:29:52;7.07;;;3.93;;
2956;SDS011;1488;51.548;7.222;2024-01-25T00:32:19;3.80;;;2.47;;
2956;SDS011;1488;51.548;7.222;2024-01-25T00:34:46;4.80;;;2.50;;
2956;SDS011;1488;51.548;7.222;2024-01-25T00:37:13;4.23;;;2.70;;
2956;SDS011;1488;51.548;7.222;2024-01-25T00:39:40;5.00;;;3.30;;
2956;SDS011;1488;51.548;7.222;2024-01-25T00:42:09;3.73;;;2.43;;
2956;SDS011;1488;51.548;7.222;2024-01-25T00:44:40;4.03;;;2.70;;
2956;SDS011;1488;51.548;7.222;2024-01-25T00:47:07;5.80;;;2.93;;
2956;SDS011;1488;51.548;7.222;2024-01-25T00:49:35;4.37;;;2.70;;
2956;SDS011;1488;51.548;7.222;2024-01-25T00:52:02;4.80;;;3.13;;
2956;SDS011;1488;51.548;7.222;2024-01-25T00:54:30;4.27;;;2.87;;
2956;SDS011;1488;51.548;7.222;2024-01-25T00:56:57;4.97;;;2.27;;
2956;SDS011;1488;51.548;7.222;2024-01-25T00:59:26;5.57;;;2.67;;
2956;SDS011;1488;51.548;7.222;2024-01-25T01:01:53;3.70;;;2.33;;
2956;SDS011;1488;51.548;7.222;2024-01-25T01:04:23;3.30;;;2.40;;
2956;SDS011;1488;51.548;7.222;2024-01-25T01:06:50;4.80;;;2.67;;
2956;SDS011;1488;51.548;7.222;2024-01-25T01:09:18;4.93;;;2.40;;
2956;SDS011;1488;51.548;7.222;2024-01-25T01:11:44;4.33;;;2.60;;
2956;SDS011;1488;51.548;7.222;2024-01-25T01:14:11;3.67;;;2.20;;
2956;SDS011;1488;51.548;7.222;2024-01-25T01:16:39;3.20;;;2.40;;
2956;SDS011;1488;51.548;7.222;2024-01-25T01:19:06;4.70;;;2.60;;
2956;SDS011;1488;51.548;7.222;2024-01-25T01:21:33;3.23;;;2.10;;
2956;SDS011;1488;51.548;7.222;2024-01-25T01:24:00;5.37;;;2.90;;
2956;SDS011;1488;51.548;7.222;2024-01-25T01:26:27;4.83;;;2.30;;
2956;SDS011;1488;51.548;7.222;2024-01-25T01:28:54;5.20;;;2.40;;
2956;SDS011;1488;51.548;7.222;2024-01-25T01:31:20;4.60;;;2.50;;
2956;SDS011;1488;51.548;7.222;2024-01-25T01:33:48;3.67;;;2.63;;
2956;SDS011;1488;51.548;7.222;2024-01-25T01:36:15;3.13;;;2.40;;
2956;SDS011;1488;51.548;7.222;2024-01-25T01:38:42;3.80;;;2.20;;
2956;SDS011;1488;51.548;7.222;2024-01-25T01:41:09;5.53;;;2.80;;
2956;SDS011;1488;51.548;7.222;2024-01-25T01:43:37;5.27;;;2.57;;
2956;SDS011;1488;51.548;7.222;2024-01-25T01:46:09;3.87;;;2.70;;
2956;SDS011;1488;51.548;7.222;2024-01-25T01:48:38;4.17;;;2.40;;
2956;SDS011;1488;51.548;7.222;2024-01-25T01:51:07;5.90;;;3.03;;
2956;SDS011;1488;51.548;7.222;2024-01-25T01:53:34;4.47;;;2.70;;
2956;SDS011;1488;51.548;7.222;2024-01-25T01:56:02;4.90;;;2.23;;
2956;SDS011;1488;51.548;7.222;2024-01-25T01:58:29;3.17;;;2.30;;
2956;SDS011;1488;51.548;7.222;2024-01-25T02:00:57;3.73;;;2.00;;
2956;SDS011;1488;51.548;7.222;2024-01-25T02:03:25;4.10;;;2.63;;
2956;SDS011;1488;51.548;7.222;2024-01-25T02:05:52;4.33;;;2.53;;
2956;SDS011;1488;51.548;7.222;2024-01-25T02:08:21;3.77;;;2.43;;
2956;SDS011;1488;51.548;7.222;2024-01-25T02:10:47;3.53;;;2.40;;
2956;SDS011;1488;51.548;7.222;2024-01-25T02:13:14;4.57;;;2.50;;
2956;SDS011;1488;51.548;7.222;2024-01-25T02:15:41;3.13;;;2.30;;
2956;SDS011;1488;51.548;7.222;2024-01-25T02:18:08;3.10;;;2.20;;
2956;SDS011;1488;51.548;7.222;2024-01-25T02:20:35;3.23;;;1.97;;
2956;SDS011;1488;51.548;7.222;2024-01-25T02:23:04;4.30;;;2.60;;
2956;SDS011;1488;51.548;7.222;2024-01-25T02:25:30;3.57;;;2.27;;
2956;SDS011;1488;51.548;7.222;2024-01-25T02:27:57;4.13;;;2.37;;
2956;SDS011;1488;51.548;7.222;2024-01-25T02:30:24;4.27;;;2.40;;
2956;SDS011;1488;51.548;7.222;2024-01-25T02:32:51;3.57;;;2.13;;
2956;SDS011;1488;51.548;7.222;2024-01-25T02:35:18;3.30;;;1.90;;
2956;SDS011;1488;51.548;7.222;2024-01-25T02:37:45;4.03;;;2.10;;
2956;SDS011;1488;51.548;7.222;2024-01-25T02:40:14;3.23;;;2.10;;
2956;SDS011;1488;51.548;7.222;2024-01-25T02:42:41;4.00;;;2.77;;
2956;SDS011;1488;51.548;7.222;2024-01-25T02:45:08;2.80;;;1.90;;
2956;SDS011;1488;51.548;7.222;2024-01-25T02:47:35;4.83;;;2.70;;
2956;SDS011;1488;51.548;7.222;2024-01-25T02:50:02;4.93;;;2.27;;
2956;SDS011;1488;51.548;7.222;2024-01-25T02:52:29;5.43;;;2.67;;
2956;SDS011;1488;51.548;7.222;2024-01-25T02:54:56;4.33;;;2.10;;
2956;SDS011;1488;51.548;7.222;2024-01-25T02:57:24;5.07;;;2.20;;
2956;SDS011;1488;51.548;7.222;2024-01-25T02:59:51;4.70;;;2.43;;
2956;SDS011;1488;51.548;7.222;2024-01-25T03:02:18;3.60;;;2.00;;
2956;SDS011;1488;51.548;7.222;2024-01-25T03:04:45;3.63;;;2.23;;
2956;SDS011;1488;51.548;7.222;2024-01-25T03:07:12;3.37;;;2.13;;
2956;SDS011;1488;51.548;7.222;2024-01-25T03:09:39;4.30;;;2.30;;
2956;SDS011;1488;51.548;7.222;2024-01-25T03:12:06;6.00;;;2.17;;
2956;SDS011;1488;51.548;7.222;2024-01-25T03:14:34;2.93;;;2.40;;
2956;SDS011;1488;51.548;7.222;2024-01-25T03:17:01;4.23;;;2.13;;
2956;SDS011;1488;51.548;7.222;2024-01-25T03:19:28;3.37;;;2.10;;
2956;SDS011;1488;51.548;7.222;2024-01-25T03:21:54;3.97;;;2.30;;
2956;SDS011;1488;51.548;7.222;2024-01-25T03:24:21;3.40;;;2.07;;
2956;SDS011;1488;51.548;7.222;2024-01-25T03:26:49;3.53;;;2.23;;
2956;SDS011;1488;51.548;7.222;2024-01-25T03:29:16;3.30;;;1.80;;
2956;SDS011;1488;51.548;7.222;2024-01-25T03:31:44;3.50;;;1.90;;
2956;SDS011;1488;51.548;7.222;2024-01-25T03:34:11;3.97;;;1.90;;
2956;SDS011;1488;51.548;7.222;2024-01-25T03:36:38;2.80;;;1.63;;
2956;SDS011;1488;51.548;7.222;2024-01-25T03:39:05;3.20;;;1.80;;
2956;SDS011;1488;51.548;7.222;2024-01-25T03:41:33;2.43;;;1.73;;
2956;SDS011;1488;51.548;7.222;2024-01-25T03:44:00;3.30;;;2.20;;
2956;SDS011;1488;51.548;7.222;2024-01-25T03:46:26;5.87;;;2.70;;
2956;SDS011;1488;51.548;7.222;2024-01-25T03:48:55;3.77;;;2.43;;
2956;SDS011;1488;51.548;7.222;2024-01-25T03:51:21;3.87;;;2.23;;
2956;SDS011;1488;51.548;7.222;2024-01-25T03:53:49;3.80;;;1.83;;
2956;SDS011;1488;51.548;7.222;2024-01-25T03:56:17;3.17;;;1.70;;
2956;SDS011;1488;51.548;7.222;2024-01-25T03:58:44;3.03;;;1.90;;
2956;SDS011;1488;51.548;7.222;2024-01-25T04:01:11;5.00;;;2.20;;
2956;SDS011;1488;51.548;7.222;2024-01-25T04:03:38;6.53;;;2.43;;
2956;SDS011;1488;51.548;7.222;2024-01-25T04:06:07;2.60;;;1.97;;
2956;SDS011;1488;51.548;7.222;2024-01-25T04:08:34;3.73;;;1.70;;
2956;SDS011;1488;51.548;7.222;2024-01-25T04:11:01;2.97;;;1.80;;
2956;SDS011;1488;51.548;7.222;2024-01-25T04:13:28;3.57;;;2.00;;
2956;SDS011;1488;51.548;7.222;2024-01-25T04:15:54;4.27;;;2.47;;
2956;SDS011;1488;51.548;7.222;2024-01-25T04:18:21;4.57;;;2.03;;
2956;SDS011;1488;51.548;7.222;2024-01-25T04:20:48;4.20;;;2.03;;
2956;SDS011;1488;51.548;7.222;2024-01-25T04:23:17;3.67;;;2.10;;
2956;SDS011;1488;51.548;7.222;2024-01-25T04:25:44;3.47;;;1.90;;
2956;SDS011;1488;51.548;7.222;2024-01-25T04:28:10;4.13;;;2.43;;
2956;SDS011;1488;51.548;7.222;2024-01-25T04:30:37;3.03;;;1.73;;
2956;SDS011;1488;51.548;7.222;2024-01-25T04:33:04;2.63;;;1.87;;
2956;SDS011;1488;51.548;7.222;2024-01-25T04:35:31;3.73;;;2.20;;
2956;SDS011;1488;51.548;7.222;2024-01-25T04:37:58;4.97;;;2.53;;
2956;SDS011;1488;51.548;7.222;2024-01-25T04:40:26;3.20;;;2.07;;
2956;SDS011;1488;51.548;7.222;2024-01-25T04:42:53;4.00;;;1.87;;
2956;SDS011;1488;51.548;7.222;2024-01-25T04:45:20;4.13;;;2.10;;
2956;SDS011;1488;51.548;7.222;2024-01-25T04:47:47;3.43;;;2.03;;
2956;SDS011;1488;51.548;7.222;2024-01-25T04:50:14;2.87;;;1.77;;
2956;SDS011;1488;51.548;7.222;2024-01-25T04:52:41;2.87;;;1.83;;
2956;SDS011;1488;51.548;7.222;2024-01-25T04:55:08;2.80;;;1.63;;
2956;SDS011;1488;51.548;7.222;2024-01-25T04:57:36;3.80;;;2.07;;
2956;SDS011;1488;51.548;7.222;2024-01-25T05:00:03;2.83;;;1.63;;
2956;SDS011;1488;51.548;7.222;2024-01-25T05:02:31;3.37;;;1.50;;
2956;SDS011;1488;51.548;7.222;2024-01-25T05:04:58;2.53;;;1.63;;
2956;SDS011;1488;51.548;7.222;2024-01-25T05:07:25;3.30;;;1.97;;
2956;SDS011;1488;51.548;7.222;2024-01-25T05:09:52;3.73;;;2.30;;
2956;SDS011;1488;51.548;7.222;2024-01-25T05:12:18;3.40;;;1.90;;
2956;SDS011;1488;51.548;7.222;2024-01-25T05:14:47;4.07;;;1.70;;
2956;SDS011;1488;51.548;7.222;2024-01-25T05:17:13;5.53;;;2.03;;
2956;SDS011;1488;51.548;7.222;2024-01-25T05:19:40;5.40;;;2.10;;
2956;SDS011;1488;51.548;7.222;2024-01-25T05:22:07;4.77;;;2.20;;
2956;SDS011;1488;51.548;7.222;2024-01-25T05:24:34;3.67;;;2.23;;
2956;SDS011;1488;51.548;7.222;2024-01-25T05:27:00;2.20;;;1.50;;
2956;SDS011;1488;51.548;7.222;2024-01-25T05:29:27;4.53;;;1.80;;
2956;SDS011;1488;51.548;7.222;2024-01-25T05:31:56;3.47;;;1.70;;
2956;SDS011;1488;51.548;7.222;2024-01-25T05:34:24;3.70;;;1.90;;
2956;SDS011;1488;51.548;7.222;2024-01-25T05:36:51;3.50;;;2.07;;
2956;SDS011;1488;51.548;7.222;2024-01-25T05:39:18;3.40;;;1.73;;
2956;SDS011;1488;51.548;7.222;2024-01-25T05:41:46;4.13;;;1.93;;
2956;SDS011;1488;51.548;7.222;2024-01-25T05:44:13;3.70;;;2.13;;
2956;SDS011;1488;51.548;7.222;2024-01-25T05:46:40;2.80;;;1.60;;
2956;SDS011;1488;51.548;7.222;2024-01-25T05:49:08;2.73;;;1.47;;
2956;SDS011;1488;51.548;7.222;2024-01-25T05:51:35;2.83;;;1.60;;
2956;SDS011;1488;51.548;7.222;2024-01-25T05:54:02;2.90;;;1.70;;
2956;SDS011;1488;51.548;7.222;2024-01-25T05:56:29;3.60;;;2.33;;
2956;SDS011;1488;51.548;7.222;2024-01-25T05:58:56;4.23;;;1.90;;
2956;SDS011;1488;51.548;7.222;2024-01-25T06:01:22;2.70;;;2.13;;
2956;SDS011;1488;51.548;7.222;2024-01-25T06:03:49;3.30;;;1.60;;
2956;SDS011;1488;51.548;7.222;2024-01-25T06:06:17;4.03;;;2.10;;
2956;SDS011;1488;51.548;7.222;2024-01-25T06:08:44;3.20;;;2.00;;
2956;SDS011;1488;51.548;7.222;2024-01-25T06:11:11;2.77;;;1.80;;
2956;SDS011;1488;51.548;7.222;2024-01-25T06:13:38;4.40;;;1.93;;
2956;SDS011;1488;51.548;7.222;2024-01-25T06:16:05;3.23;;;1.93;;
2956;SDS011;1488;51.548;7.222;2024-01-25T06:18:32;3.30;;;1.97;;
2956;SDS011;1488;51.548;7.222;2024-01-25T06:20:58;3.83;;;1.97;;
2956;SDS011;1488;51.548;7.222;2024-01-25T06:23:27;3.40;;;1.80;;
2956;SDS011;1488;51.548;7.222;2024-01-25T06:25:53;3.57;;;1.80;;
2956;SDS011;1488;51.548;7.222;2024-01-25T06:28:20;2.63;;;1.20;;
2956;SDS011;1488;51.548;7.222;2024-01-25T06:30:47;3.80;;;1.73;;
2956;SDS011;1488;51.548;7.222;2024-01-25T06:33:14;3.33;;;1.80;;
2956;SDS011;1488;51.548;7.222;2024-01-25T06:35:41;3.03;;;1.80;;
2956;SDS011;1488;51.548;7.222;2024-01-25T06:38:07;2.93;;;1.60;;
2956;SDS011;1488;51.548;7.222;2024-01-25T06:40:35;3.30;;;1.60;;
2956;SDS011;1488;51.548;7.222;2024-01-25T06:43:03;3.90;;;2.13;;
2956;SDS011;1488;51.548;7.222;2024-01-25T06:45:30;3.77;;;1.93;;
2956;SDS011;1488;51.548;7.222;2024-01-25T06:47:57;2.53;;;1.50;;
2956;SDS011;1488;51.548;7.222;2024-01-25T06:50:25;3.23;;;1.80;;
2956;SDS011;1488;51.548;7.222;2024-01-25T06:52:51;3.60;;;1.97;;
2956;SDS011;1488;51.548;7.222;2024-01-25T06:55:18;3.93;;;2.30;;
2956;SDS011;1488;51.548;7.222;2024-01-25T06:57:47;2.70;;;1.67;;
2956;SDS011;1488;51.548;7.222;2024-01-25T07:00:14;3.10;;;1.80;;
2956;SDS011;1488;51.548;7.222;2024-01-25T07:02:41;3.43;;;1.90;;
2956;SDS011;1488;51.548;7.222;2024-01-25T07:05:09;3.33;;;1.67;;
2956;SDS011;1488;51.548;7.222;2024-01-25T07:07:36;3.40;;;1.83;;
2956;SDS011;1488;51.548;7.222;2024-01-25T07:10:05;4.17;;;1.80;;
2956;SDS011;1488;51.548;7.222;2024-01-25T07:12:32;3.47;;;2.20;;
2956;SDS011;1488;51.548;7.222;2024-01-25T07:15:00;7.90;;;1.70;;
2956;SDS011;1488;51.548;7.222;2024-01-25T07:17:28;5.50;;;1.80;;
2956;SDS011;1488;51.548;7.222;2024-01-25T07:19:54;5.30;;;2.03;;
2956;SDS011;1488;51.548;7.222;2024-01-25T07:22:21;6.50;;;1.90;;
2956;SDS011;1488;51.548;7.222;2024-01-25T07:24:48;6.70;;;2.43;;
2956;SDS011;1488;51.548;7.222;2024-01-25T07:27:15;13.20;;;1.77;;
2956;SDS011;1488;51.548;7.222;2024-01-25T07:29:43;5.43;;;2.17;;
2956;SDS011;1488;51.548;7.222;2024-01-25T07:32:11;7.03;;;2.73;;
2956;SDS011;1488;51.548;7.222;2024-01-25T07:34:38;3.70;;;1.60;;
2956;SDS011;1488;51.548;7.222;2024-01-25T07:37:05;5.50;;;2.50;;
2956;SDS011;1488;51.548;7.222;2024-01-25T07:39:32;2.77;;;1.97;;
2956;SDS011;1488;51.548;7.222;2024-01-25T07:41:59;4.30;;;2.00;;
2956;SDS011;1488;51.548;7.222;2024-01-25T07:44:25;5.27;;;2.20;;
2956;SDS011;1488;51.548;7.222;2024-01-25T07:46:52;4.43;;;2.30;;
2956;SDS011;1488;51.548;7.222;2024-01-25T07:49:21;15.97;;;3.90;;
2956;SDS011;1488;51.548;7.222;2024-01-25T07:51:47;8.00;;;3.37;;
2956;SDS011;1488;51.548;7.222;2024-01-25T07:54:14;7.90;;;2.30;;
2956;SDS011;1488;51.548;7.222;2024-01-25T07:56:41;17.07;;;2.80;;
2956;SDS011;1488;51.548;7.222;2024-01-25T07:59:08;7.90;;;2.30;;
2956;SDS011;1488;51.548;7.222;2024-01-25T08:01:35;11.10;;;3.17;;
2956;SDS011;1488;51.548;7.222;2024-01-25T08:04:01;11.77;;;2.50;;
2956;SDS011;1488;51.548;7.222;2024-01-25T08:06:30;6.77;;;2.40;;
2956;SDS011;1488;51.548;7.222;2024-01-25T08:08:57;7.43;;;2.33;;
2956;SDS011;1488;51.548;7.222;2024-01-25T08:11:24;9.40;;;3.07;;
2956;SDS011;1488;51.548;7.222;2024-01-25T08:13:51;17.47;;;2.83;;
2956;SDS011;1488;51.548;7.222;2024-01-25T08:16:18;6.53;;;2.50;;
2956;SDS011;1488;51.548;7.222;2024-01-25T08:18:45;8.40;;;3.20;;
2956;SDS011;1488;51.548;7.222;2024-01-25T08:21:12;13.00;;;3.40;;
2956;SDS011;1488;51.548;7.222;2024-01-25T08:23:40;7.97;;;3.30;;
2956;SDS011;1488;51.548;7.222;2024-01-25T08:26:08;13.63;;;3.50;;
2956;SDS011;1488;51.548;7.222;2024-01-25T08:28:38;8.90;;;2.47;;
2956;SDS011;1488;51.548;7.222;2024-01-25T08:31:05;10.10;;;3.20;;
2956;SDS011;1488;51.548;7.222;2024-01-25T08:33:32;10.77;;;3.07;;
2956;SDS011;1488;51.548;7.222;2024-01-25T08:35:59;7.40;;;3.33;;
2956;SDS011;1488;51.548;7.222;2024-01-25T08:38:26;12.63;;;3.67;;
2956;SDS011;1488;51.548;7.222;2024-01-25T08:40:54;15.40;;;2.90;;
2956;SDS011;1488;51.548;7.222;2024-01-25T08:43:21;13.00;;;3.97;;
2956;SDS011;1488;51.548;7.222;2024-01-25T08:45:48;13.30;;;4.07;;
2956;SDS011;1488;51.548;7.222;2024-01-25T08:48:14;16.13;;;4.50;;
2956;SDS011;1488;51.548;7.222;2024-01-25T08:50:41;8.97;;;3.10;;
2956;SDS011;1488;51.548;7.222;2024-01-25T08:53:08;11.23;;;3.60;;
2956;SDS011;1488;51.548;7.222;2024-01-25T08:55:36;9.77;;;3.10;;
2956;SDS011;1488;51.548;7.222;2024-01-25T08:58:04;8.10;;;3.33;;
2956;SDS011;1488;51.548;7.222;2024-01-25T09:00:31;9.13;;;3.23;;
2956;SDS011;1488;51.548;7.222;2024-01-25T09:02:57;11.10;;;3.93;;
2956;SDS011;1488;51.548;7.222;2024-01-25T09:05:24;10.77;;;3.10;;
2956;SDS011;1488;51.548;7.222;2024-01-25T09:07:53;8.67;;;3.20;;
2956;SDS011;1488;51.548;7.222;2024-01-25T09:10:20;6.87;;;3.20;;
2956;SDS011;1488;51.548;7.222;2024-01-25T09:12:48;9.10;;;3.30;;
2956;SDS011;1488;51.548;7.222;2024-01-25T09:15:16;13.27;;;3.30;;
2956;SDS011;1488;51.548;7.222;2024-01-25T09:17:44;7.73;;;3.47;;
2956;SDS011;1488;51.548;7.222;2024-01-25T09:20:11;9.17;;;3.70;;
2956;SDS011;1488;51.548;7.222;2024-01-25T09:22:38;8.83;;;3.70;;
2956;SDS011;1488;51.548;7.222;2024-01-25T09:25:05;9.07;;;3.60;;
2956;SDS011;1488;51.548;7.222;2024-01-25T09:27:32;9.40;;;2.80;;
2956;SDS011;1488;51.548;7.222;2024-01-25T09:29:59;6.83;;;2.63;;
2956;SDS011;1488;51.548;7.222;2024-01-25T09:32:27;8.70;;;3.73;;
2956;SDS011;1488;51.548;7.222;2024-01-25T09:34:54;10.07;;;3.40;;
2956;SDS011;1488;51.548;7.222;2024-01-25T09:37:20;9.40;;;3.10;;
2956;SDS011;1488;51.548;7.222;2024-01-25T09:39:49;12.93;;;3.50;;
2956;SDS011;1488;51.548;7.222;2024-01-25T09:42:16;5.63;;;2.93;;
2956;SDS011;1488;51.548;7.222;2024-01-25T09:44:43;8.13;;;3.23;;
2956;SDS011;1488;51.548;7.222;2024-01-25T09:47:10;10.57;;;3.40;;
2956;SDS011;1488;51.548;7.222;2024-01-25T09:49:38;11.50;;;2.80;;
2956;SDS011;1488;51.548;7.222;2024-01-25T09:52:07;5.30;;;2.57;;
2956;SDS011;1488;51.548;7.222;2024-01-25T09:54:38;11.43;;;3.63;;
2956;SDS011;1488;51.548;7.222;2024-01-25T09:57:06;9.50;;;3.13;;
2956;SDS011;1488;51.548;7.222;2024-01-25T09:59:40;6.83;;;2.77;;
2956;SDS011;1488;51.548;7.222;2024-01-25T10:02:07;5.90;;;2.83;;
2956;SDS011;1488;51.548;7.222;2024-01-25T10:04:35;9.03;;;2.73;;
2956;SDS011;1488;51.548;7.222;2024-01-25T10:07:03;8.23;;;2.70;;
2956;SDS011;1488;51.548;7.222;2024-01-25T10:09:31;14.70;;;3.90;;
2956;SDS011;1488;51.548;7.222;2024-01-25T10:12:05;9.40;;;2.87;;
2956;SDS011;1488;51.548;7.222;2024-01-25T10:14:32;10.43;;;3.40;;
2956;SDS011;1488;51.548;7.222;2024-01-25T10:17:00;7.50;;;2.83;;
2956;SDS011;1488;51.548;7.222;2024-01-25T10:19:27;9.13;;;2.80;;
2956;SDS011;1488;51.548;7.222;2024-01-25T10:21:55;7.73;;;2.90;;
2956;SDS011;1488;51.548;7.222;2024-01-25T10:24:23;7.43;;;3.30;;
2956;SDS011;1488;51.548;7.222;2024-01-25T10:26:50;10.03;;;3.50;;
2956;SDS011;1488;51.548;7.222;2024-01-25T10:29:17;10.70;;;3.27;;
2956;SDS011;1488;51.548;7.222;2024-01-25T10:31:43;14.97;;;3.87;;
2956;SDS011;1488;51.548;7.222;2024-01-25T10:34:13;8.60;;;3.40;;
2956;SDS011;1488;51.548;7.222;2024-01-25T10:36:40;13.30;;;3.70;;
2956;SDS011;1488;51.548;7.222;2024-01-25T10:39:07;9.03;;;3.33;;
2956;SDS011;1488;51.548;7.222;2024-01-25T10:41:36;25.87;;;3.50;;
2956;SDS011;1488;51.548;7.222;2024-01-25T10:44:04;12.97;;;4.07;;
2956;SDS011;1488;51.548;7.222;2024-01-25T10:46:32;13.03;;;3.47;;
2956;SDS011;1488;51.548;7.222;2024-01-25T10:49:00;15.33;;;3.37;;
2956;SDS011;1488;51.548;7.222;2024-01-25T10:51:27;11.20;;;3.90;;
2956;SDS011;1488;51.548;7.222;2024-01-25T10:53:56;20.73;;;3.70;;
2956;SDS011;1488;51.548;7.222;2024-01-25T10:56:24;10.20;;;3.27;;
2956;SDS011;1488;51.548;7.222;2024-01-25T10:58:52;10.20;;;3.33;;
2956;SDS011;1488;51.548;7.222;2024-01-25T11:01:19;5.83;;;2.50;;
2956;SDS011;1488;51.548;7.222;2024-01-25T11:03:46;13.53;;;3.37;;
2956;SDS011;1488;51.548;7.222;2024-01-25T11:06:13;13.20;;;3.40;;
2956;SDS011;1488;51.548;7.222;2024-01-25T11:08:40;5.23;;;2.50;;
2956;SDS011;1488;51.548;7.222;2024-01-25T11:11:08;9.27;;;3.10;;
2956;SDS011;1488;51.548;7.222;2024-01-25T11:13:38;9.30;;;3.30;;
2956;SDS011;1488;51.548;7.222;2024-01-25T11:16:16;16.33;;;3.30;;
2956;SDS011;1488;51.548;7.222;2024-01-25T11:18:49;13.83;;;3.53;;
2956;SDS011;1488;51.548;7.222;2024-01-25T11:21:23;6.40;;;2.77;;
2956;SDS011;1488;51.548;7.222;2024-01-25T11:23:59;9.80;;;3.27;;
2956;SDS011;1488;51.548;7.222;2024-01-25T11:26:26;9.90;;;3.00;;
2956;SDS011;1488;51.548;7.222;2024-01-25T11:28:53;10.53;;;3.40;;
2956;SDS011;1488;51.548;7.222;2024-01-25T11:31:22;6.90;;;3.00;;
2956;SDS011;1488;51.548;7.222;2024-01-25T11:33:50;6.80;;;3.47;;
2956;SDS011;1488;51.548;7.222;2024-01-25T11:36:20;9.73;;;2.57;;
2956;SDS011;1488;51.548;7.222;2024-01-25T11:38:48;5.30;;;2.60;;
2956;SDS011;1488;51.548;7.222;2024-01-25T11:41:14;5.50;;;2.60;;
2956;SDS011;1488;51.548;7.222;2024-01-25T11:43:41;10.90;;;2.53;;
2956;SDS011;1488;51.548;7.222;2024-01-25T11:46:08;6.27;;;2.67;;
2956;SDS011;1488;51.548;7.222;2024-01-25T11:48:39;7.60;;;2.70;;
2956;SDS011;1488;51.548;7.222;2024-01-25T11:51:08;5.07;;;2.70;;
2956;SDS011;1488;51.548;7.222;2024-01-25T11:53:35;6.47;;;3.20;;
2956;SDS011;1488;51.548;7.222;2024-01-25T11:56:02;9.27;;;3.17;;
2956;SDS011;1488;51.548;7.222;2024-01-25T11:58:32;10.40;;;4.53;;
2956;SDS011;1488;51.548;7.222;2024-01-25T12:00:59;15.47;;;4.80;;
2956;SDS011;1488;51.548;7.222;2024-01-25T12:03:28;16.60;;;5.80;;
2956;SDS011;1488;51.548;7.222;2024-01-25T12:05:56;14.97;;;5.23;;
2956;SDS011;1488;51.548;7.222;2024-01-25T12:08:25;17.30;;;5.97;;
2956;SDS011;1488;51.548;7.222;2024-01-25T12:11:01;19.90;;;7.23;;
2956;SDS011;1488;51.548;7.222;2024-01-25T12:13:31;14.47;;;7.07;;
2956;SDS011;1488;51.548;7.222;2024-01-25T12:15:58;17.73;;;8.43;;
2956;SDS011;1488;51.548;7.222;2024-01-25T12:18:26;20.73;;;9.13;;
2956;SDS011;1488;51.548;7.222;2024-01-25T12:20:53;24.10;;;11.30;;
2956;SDS011;1488;51.548;7.222;2024-01-25T12:23:22;22.20;;;10.90;;
2956;SDS011;1488;51.548;7.222;2024-01-25T12:25:48;16.50;;;9.10;;
2956;SDS011;1488;51.548;7.222;2024-01-25T12:28:15;22.17;;;9.47;;
2956;SDS011;1488;51.548;7.222;2024-01-25T12:30:42;18.90;;;9.43;;
2956;SDS011;1488;51.548;7.222;2024-01-25T12:33:09;22.33;;;9.47;;
2956;SDS011;1488;51.548;7.222;2024-01-25T12:35:36;15.80;;;10.00;;
2956;SDS011;1488;51.548;7.222;2024-01-25T12:38:03;17.73;;;7.90;;
2956;SDS011;1488;51.548;7.222;2024-01-25T12:40:31;14.40;;;8.27;;
2956;SDS011;1488;51.548;7.222;2024-01-25T12:42:58;15.63;;;7.33;;
2956;SDS011;1488;51.548;7.222;2024-01-25T12:45:25;14.63;;;7.30;;
2956;SDS011;1488;51.548;7.222;2024-01-25T12:47:52;16.63;;;8.30;;
2956;SDS011;1488;51.548;7.222;2024-01-25T12:50:19;13.67;;;7.73;;
2956;SDS011;1488;51.548;7.222;2024-01-25T12:52:46;15.10;;;7.80;;
2956;SDS011;1488;51.548;7.222;2024-01-25T12:55:16;16.57;;;8.20;;
2956;SDS011;1488;51.548;7.222;2024-01-25T12:57:44;17.97;;;8.40;;
2956;SDS011;1488;51.548;7.222;2024-01-25T13:00:11;12.47;;;7.27;;
2956;SDS011;1488;51.548;7.222;2024-01-25T13:02:38;23.57;;;8.47;;
2956;SDS011;1488;51.548;7.222;2024-01-25T13:05:05;12.43;;;6.40;;
2956;SDS011;1488;51.548;7.222;2024-01-25T13:07:33;24.83;;;7.33;;
2956;SDS011;1488;51.548;7.222;2024-01-25T13:09:59;24.07;;;6.83;;
2956;SDS011;1488;51.548;7.222;2024-01-25T13:12:26;22.63;;;7.27;;
2956;SDS011;1488;51.548;7.222;2024-01-25T13:14:54;28.20;;;7.20;;
2956;SDS011;1488;51.548;7.222;2024-01-25T13:17:21;19.27;;;6.13;;
2956;SDS011;1488;51.548;7.222;2024-01-25T13:19:50;20.60;;;5.93;;
2956;SDS011;1488;51.548;7.222;2024-01-25T13:22:17;21.83;;;6.40;;
2956;SDS011;1488;51.548;7.222;2024-01-25T13:24:46;22.27;;;6.43;;
2956;SDS011;1488;51.548;7.222;2024-01-25T13:27:12;18.43;;;5.93;;
2956;SDS011;1488;51.548;7.222;2024-01-25T13:29:39;28.90;;;6.90;;
2956;SDS011;1488;51.548;7.222;2024-01-25T13:32:07;19.10;;;6.33;;
2956;SDS011;1488;51.548;7.222;2024-01-25T13:34:34;17.63;;;5.90;;
2956;SDS011;1488;51.548;7.222;2024-01-25T13:37:02;36.10;;;8.20;;
2956;SDS011;1488;51.548;7.222;2024-01-25T13:39:30;17.83;;;6.47;;
2956;SDS011;1488;51.548;7.222;2024-01-25T13:41:56;28.00;;;6.93;;
2956;SDS011;1488;51.548;7.222;2024-01-25T13:44:24;18.90;;;7.40;;
2956;SDS011;1488;51.548;7.222;2024-01-25T13:46:51;30.57;;;7.10;;
2956;SDS011;1488;51.548;7.222;2024-01-25T13:49:21;25.37;;;6.87;;
2956;SDS011;1488;51.548;7.222;2024-01-25T13:51:47;26.20;;;7.37;;
2956;SDS011;1488;51.548;7.222;2024-01-25T13:54:14;21.30;;;7.43;;
2956;SDS011;1488;51.548;7.222;2024-01-25T13:56:41;14.50;;;6.97;;
2956;SDS011;1488;51.548;7.222;2024-01-25T14:01:38;17.73;;;7.03;;
2956;SDS011;1488;51.548;7.222;2024-01-25T14:04:04;17.37;;;7.50;;
2956;SDS011;1488;51.548;7.222;2024-01-25T14:06:33;18.93;;;7.87;;
2956;SDS011;1488;51.548;7.222;2024-01-25T14:09:00;19.80;;;8.53;;
2956;SDS011;1488;51.548;7.222;2024-01-25T14:11:27;18.93;;;7.80;;
2956;SDS011;1488;51.548;7.222;2024-01-25T14:13:54;19.70;;;7.47;;
2956;SDS011;1488;51.548;7.222;2024-01-25T14:16:20;19.50;;;7.33;;
2956;SDS011;1488;51.548;7.222;2024-01-25T14:18:47;29.20;;;8.20;;
2956;SDS011;1488;51.548;7.222;2024-01-25T14:21:14;16.83;;;7.73;;
2956;SDS011;1488;51.548;7.222;2024-01-25T14:23:42;15.83;;;7.63;;
2956;SDS011;1488;51.548;7.222;2024-01-25T14:26:09;13.23;;;8.07;;
2956;SDS011;1488;51.548;7.222;2024-01-25T14:28:36;17.37;;;8.43;;
2956;SDS011;1488;51.548;7.222;2024-01-25T14:31:03;16.13;;;8.03;;
2956;SDS011;1488;51.548;7.222;2024-01-25T14:33:30;21.13;;;9.13;;
2956;SDS011;1488;51.548;7.222;2024-01-25T14:35:56;21.27;;;8.77;;
2956;SDS011;1488;51.548;7.222;2024-01-25T14:38:23;20.93;;;8.87;;
2956;SDS011;1488;51.548;7.222;2024-01-25T14:40:51;17.03;;;8.07;;
2956;SDS011;1488;51.548;7.222;2024-01-25T14:43:18;21.83;;;8.80;;
2956;SDS011;1488;51.548;7.222;2024-01-25T14:45:45;29.57;;;11.00;;
2956;SDS011;1488;51.548;7.222;2024-01-25T14:48:11;22.03;;;9.27;;
2956;SDS011;1488;51.548;7.222;2024-01-25T14:50:38;20.50;;;9.43;;
2956;SDS011;1488;51.548;7.222;2024-01-25T14:53:05;18.00;;;9.60;;
2956;SDS011;1488;51.548;7.222;2024-01-25T14:55:32;16.23;;;8.70;;
2956;SDS011;1488;51.548;7.222;2024-01-25T14:58:00;21.70;;;9.90;;
2956;SDS011;1488;51.548;7.222;2024-01-25T15:00:27;18.03;;;9.50;;
2956;SDS011;1488;51.548;7.222;2024-01-25T15:02:53;18.93;;;10.50;;
2956;SDS011;1488;51.548;7.222;2024-01-25T15:05:22;19.10;;;10.27;;
2956;SDS011;1488;51.548;7.222;2024-01-25T15:07:48;19.63;;;9.90;;
2956;SDS011;1488;51.548;7.222;2024-01-25T15:10:15;23.13;;;9.90;;
2956;SDS011;1488;51.548;7.222;2024-01-25T15:12:42;21.17;;;10.33;;